Aérodrome :
LOGIN :

S'inscrire | Disclaimer

   EN    FR    IT 

 










Légende :    VFR   VFR Marginal   IFR   IFR Intensif   IFR Très Intensif
Visi : 
Plafond : 
>= 8 km
>= 3000ft
5 à 8 km
1000 à 3000 ft
1500m à 5 km
500 à 1000 ft
800 à 1500m
200 à 500 ft
< 800m
< 200 ft
Symboles :   Orages  Brouillard  Fortes neiges  Fortes précipitations  Vent > 20 kt
SIGMETs :   Divers  Orages  Givrage  Turbulence  Onde Orograph.  Cendres Volcan.






- Altitude de l'aérodrome : 1742 ft
- Code IATA : SOF


LBSF - Sofia Int.

DERNIER METAR :
  • 280500Z 12007KT 9999 FEW040 BKN089 14/12 Q1019 NOSIG

METARs EXPIRÉS :
  • 280430Z 13004KT 9999 BKN089 14/12 Q1019 NOSIG
  • 280400Z 10005KT 9999 -RA BKN080 14/12 Q1019 NOSIG
  • 280330Z 11006KT 9999 -RA SCT045 BKN080 15/12 Q1019 NOSIG
  • 280300Z 10006KT 9999 SCT080 14/12 Q1019 NOSIG
  • 280230Z 12003KT 070V190 CAVOK 14/12 Q1019 NOSIG

TAF TAF LBSF
Valide du 28 à 00h jusqu'au 29 à 00h UTC


272300Z 2800/2824 08010KT 9999 SCT050 SCT070
TEMPO 2802/2808 5000 RA SCT030 BKN060
TEMPO 2810/2815 VRB16G26KT 4000 TSRA SCT030CB BKN050
TEMPO 2815/2819 3000 RA BKN015 OVC040



MET'MAP, la Météo Aéronautique d'un coup d'oeil ! - Copyright ORBIFLY Décembre 2007 - Disclaimer

ORBIFLY MET'MAP TEAM :

Programmation & Développement : Alexandra Zaïnal
Sur une idée originale de : Baudouin d'Aumeries
Assistance à la programmation : Marc-Olivier Méhu
Soutien technique & logistique : Manuel Goepfert

Contact : metmap@orbifly.com




SOURCES & CREDITS :

   NOAA